createdAt,value
2022-11-09T00:01:23.698Z,7.77
2022-11-09T00:03:54.210Z,6.87
2022-11-09T00:06:20.924Z,7.77
2022-11-09T00:08:47.612Z,7.50
2022-11-09T00:11:14.251Z,8.30
2022-11-09T00:13:41.750Z,8.93
2022-11-09T00:16:09.155Z,8.30
2022-11-09T00:18:36.271Z,7.50
2022-11-09T00:21:06.792Z,7.00
2022-11-09T00:23:33.584Z,6.60
2022-11-09T00:26:01.025Z,7.93
2022-11-09T00:28:27.753Z,7.90
2022-11-09T00:31:00.600Z,7.43
2022-11-09T00:33:27.407Z,8.33
2022-11-09T00:35:54.358Z,7.47
2022-11-09T00:38:21.176Z,7.00
2022-11-09T00:40:47.871Z,7.53
2022-11-09T00:43:14.651Z,8.77
2022-11-09T00:45:41.418Z,7.70
2022-11-09T00:48:08.312Z,7.30
2022-11-09T00:50:35.479Z,7.53
2022-11-09T00:53:02.168Z,6.50
2022-11-09T00:55:28.922Z,6.90
2022-11-09T00:57:55.683Z,7.03
2022-11-09T01:00:23.816Z,7.63
2022-11-09T01:02:50.913Z,6.43
2022-11-09T01:05:19.019Z,6.23
2022-11-09T01:07:45.919Z,6.97
2022-11-09T01:10:12.600Z,7.30
2022-11-09T01:12:39.299Z,7.53
2022-11-09T01:15:07.235Z,5.23
2022-11-09T01:17:34.439Z,7.67
2022-11-09T01:20:01.071Z,6.60
2022-11-09T01:22:27.860Z,7.60
2022-11-09T01:24:54.795Z,6.70
2022-11-09T01:27:23.845Z,5.87
2022-11-09T01:29:50.467Z,7.43
2022-11-09T01:32:17.200Z,6.90
2022-11-09T01:34:43.863Z,7.10
2022-11-09T01:37:10.538Z,7.67
2022-11-09T01:39:37.259Z,6.97
2022-11-09T01:42:04.093Z,7.63
2022-11-09T01:44:30.703Z,7.70
2022-11-09T01:46:58.421Z,7.33
2022-11-09T01:49:44.014Z,7.73
2022-11-09T01:52:12.737Z,7.43
2022-11-09T01:54:42.459Z,7.70
2022-11-09T01:57:14.223Z,8.47
2022-11-09T01:59:42.607Z,7.77
2022-11-09T02:02:09.223Z,8.13
2022-11-09T02:04:50.514Z,7.83
2022-11-09T02:07:17.361Z,8.30
2022-11-09T02:09:45.896Z,8.00
2022-11-09T02:12:12.637Z,7.80
2022-11-09T02:14:40.165Z,8.60
2022-11-09T02:17:06.849Z,8.10
2022-11-09T02:19:33.512Z,8.50
2022-11-09T02:22:00.216Z,8.87
2022-11-09T02:24:26.894Z,8.43
2022-11-09T02:26:53.642Z,8.47
2022-11-09T02:29:22.272Z,8.30
2022-11-09T02:31:57.397Z,8.50
2022-11-09T02:34:24.233Z,8.70
2022-11-09T02:36:50.923Z,8.40
2022-11-09T02:39:23.203Z,8.37
2022-11-09T02:41:56.251Z,8.90
2022-11-09T02:44:25.006Z,9.07
2022-11-09T02:46:51.798Z,9.03
2022-11-09T02:49:18.990Z,8.57
2022-11-09T02:51:45.653Z,9.33
2022-11-09T02:54:12.572Z,8.90
2022-11-09T02:56:40.278Z,8.67
2022-11-09T02:59:08.309Z,8.90
2022-11-09T03:01:35.537Z,8.70
2022-11-09T03:04:02.275Z,9.03
2022-11-09T03:09:19.820Z,8.57
2022-11-09T03:11:46.608Z,9.00
2022-11-09T03:14:15.375Z,7.73
2022-11-09T03:16:50.740Z,8.30
2022-11-09T03:19:18.723Z,8.13
2022-11-09T03:21:47.578Z,8.13
2022-11-09T03:24:14.292Z,7.77
2022-11-09T03:26:41.836Z,8.37
2022-11-09T03:29:09.313Z,8.87
2022-11-09T03:31:36.544Z,10.60
2022-11-09T03:34:06.329Z,8.90
2022-11-09T03:36:35.444Z,8.47
2022-11-09T03:39:02.213Z,8.93
2022-11-09T03:41:29.251Z,9.10
2022-11-09T03:43:56.022Z,8.70
2022-11-09T03:49:07.127Z,8.87
2022-11-09T03:51:33.747Z,9.17
2022-11-09T03:54:00.420Z,9.23
2022-11-09T03:56:27.033Z,9.37
2022-11-09T04:01:39.270Z,9.23
2022-11-09T04:04:06.107Z,9.80
2022-11-09T04:06:32.903Z,9.60
2022-11-09T04:08:59.595Z,9.27
2022-11-09T04:14:10.546Z,9.00
2022-11-09T04:19:21.471Z,8.90
2022-11-09T04:24:32.416Z,9.53
2022-11-09T04:26:59.249Z,10.13
2022-11-09T04:29:26.040Z,10.03
2022-11-09T04:31:52.727Z,11.13
2022-11-09T04:34:19.527Z,11.57
2022-11-09T04:36:46.156Z,10.67
2022-11-09T04:39:12.903Z,11.47
2022-11-09T04:41:39.598Z,11.97
2022-11-09T04:44:06.424Z,10.93
2022-11-09T04:46:33.107Z,9.60
2022-11-09T04:51:44.107Z,10.33
2022-11-09T04:54:10.941Z,10.57
2022-11-09T04:56:37.649Z,10.57
2022-11-09T04:59:04.287Z,10.27
2022-11-09T05:01:30.974Z,10.13
2022-11-09T05:03:57.697Z,10.17
2022-11-09T05:06:33.344Z,10.43
2022-11-09T05:09:06.890Z,10.93
2022-11-09T05:11:34.330Z,10.17
2022-11-09T05:14:01.125Z,11.27
2022-11-09T05:16:30.678Z,10.67
2022-11-09T05:18:57.472Z,11.13
2022-11-09T05:21:24.324Z,10.87
2022-11-09T05:24:01.483Z,10.57
2022-11-09T05:26:29.560Z,11.03
2022-11-09T05:28:57.678Z,11.50
2022-11-09T05:34:10.375Z,10.77
2022-11-09T05:36:37.024Z,11.57
2022-11-09T05:39:03.759Z,11.37
2022-11-09T05:41:30.789Z,11.27
2022-11-09T05:43:57.472Z,10.40
2022-11-09T05:46:25.227Z,11.00
2022-11-09T05:48:51.943Z,11.23
2022-11-09T05:51:18.687Z,10.40
2022-11-09T05:53:46.983Z,11.17
2022-11-09T05:56:14.002Z,11.33
2022-11-09T05:58:41.507Z,11.40
2022-11-09T06:01:09.186Z,10.73
2022-11-09T06:03:36.314Z,11.03
2022-11-09T06:06:07.985Z,11.90
2022-11-09T06:08:35.591Z,12.60
2022-11-09T06:11:03.247Z,12.93
2022-11-09T06:13:30.011Z,10.57
2022-11-09T06:15:57.159Z,12.60
2022-11-09T06:18:24.418Z,13.27
2022-11-09T06:20:52.401Z,12.70
2022-11-09T06:23:19.530Z,14.07
2022-11-09T06:25:46.564Z,13.13
2022-11-09T06:28:13.209Z,13.13
2022-11-09T06:30:39.873Z,13.60
2022-11-09T06:33:06.844Z,13.20
2022-11-09T06:35:33.466Z,12.73
2022-11-09T06:40:44.378Z,14.00
2022-11-09T06:45:55.809Z,12.80
2022-11-09T06:48:22.721Z,12.60
2022-11-09T06:50:50.044Z,13.43
2022-11-09T06:53:17.135Z,12.50
2022-11-09T06:58:28.082Z,13.87
2022-11-09T07:00:54.896Z,13.90
2022-11-09T07:03:22.316Z,12.97
2022-11-09T07:05:49.801Z,13.30
2022-11-09T07:08:16.868Z,13.87
2022-11-09T07:10:43.816Z,13.97
2022-11-09T07:13:10.560Z,13.07
2022-11-09T07:15:37.456Z,11.77
2022-11-09T07:18:04.648Z,14.70
2022-11-09T07:20:31.480Z,13.97
2022-11-09T07:22:58.328Z,14.47
2022-11-09T07:25:27.449Z,14.80
2022-11-09T07:27:54.369Z,13.33
2022-11-09T07:30:21.521Z,14.00
2022-11-09T07:35:35.011Z,14.10
2022-11-09T07:38:02.090Z,13.10
2022-11-09T07:40:29.266Z,13.40
2022-11-09T07:42:59.724Z,13.77
2022-11-09T07:45:26.719Z,14.20
2022-11-09T07:48:00.160Z,14.07
2022-11-09T07:50:27.196Z,14.63
2022-11-09T07:52:55.129Z,13.37
2022-11-09T07:58:07.626Z,14.13
2022-11-09T08:03:19.815Z,13.40
2022-11-09T08:05:46.767Z,11.43
2022-11-09T08:08:15.612Z,11.33
2022-11-09T08:10:42.490Z,11.30
2022-11-09T08:13:13.916Z,11.20
2022-11-09T08:15:40.932Z,11.60
2022-11-09T08:18:08.467Z,11.57
2022-11-09T08:20:35.309Z,11.80
2022-11-09T08:23:04.651Z,12.10
2022-11-09T08:25:32.540Z,11.67
2022-11-09T08:27:59.251Z,10.80
2022-11-09T08:30:26.005Z,10.50
2022-11-09T08:32:52.680Z,11.80
2022-11-09T08:35:20.590Z,11.03
2022-11-09T08:37:48.034Z,10.60
2022-11-09T08:40:16.570Z,11.57
2022-11-09T08:42:45.815Z,10.87
2022-11-09T08:45:12.691Z,10.50
2022-11-09T08:47:40.125Z,11.37
2022-11-09T08:50:07.253Z,10.93
2022-11-09T08:52:33.972Z,11.37
2022-11-09T08:55:00.671Z,11.63
2022-11-09T08:57:27.437Z,11.83
2022-11-09T08:59:54.166Z,11.67
2022-11-09T09:02:21.312Z,11.83
2022-11-09T09:04:48.065Z,12.40
2022-11-09T09:07:17.028Z,11.30
2022-11-09T09:09:43.789Z,10.77
2022-11-09T09:12:10.543Z,10.50
2022-11-09T09:14:37.391Z,10.80
2022-11-09T09:17:04.149Z,10.33
2022-11-09T09:19:30.960Z,10.33
2022-11-09T09:21:58.223Z,10.10
2022-11-09T09:24:25.050Z,11.17
2022-11-09T09:26:51.759Z,10.00
2022-11-09T09:29:18.635Z,10.10
2022-11-09T09:31:45.631Z,10.37
2022-11-09T09:34:12.717Z,8.73
2022-11-09T09:36:43.296Z,9.20
2022-11-09T09:39:13.216Z,9.07
2022-11-09T09:41:41.734Z,9.10
2022-11-09T09:44:11.308Z,10.00
2022-11-09T09:46:39.091Z,9.33
2022-11-09T09:49:16.958Z,10.40
2022-11-09T09:51:55.233Z,10.23
2022-11-09T09:54:23.480Z,10.10
2022-11-09T09:56:50.763Z,9.47
2022-11-09T09:59:22.519Z,9.87
2022-11-09T10:01:49.271Z,10.47
2022-11-09T10:04:16.330Z,10.00
2022-11-09T10:06:59.207Z,10.77
2022-11-09T10:09:25.969Z,10.67
2022-11-09T10:12:01.335Z,10.47
2022-11-09T10:14:34.233Z,10.17
2022-11-09T10:17:06.664Z,10.80
2022-11-09T10:19:53.679Z,10.53
2022-11-09T10:22:22.908Z,10.63
2022-11-09T10:25:17.132Z,10.87
2022-11-09T10:27:45.115Z,10.63
2022-11-09T10:30:12.816Z,10.10
2022-11-09T10:32:39.488Z,10.47
2022-11-09T10:38:13.900Z,10.90
2022-11-09T10:43:52.368Z,10.60
2022-11-09T10:50:17.103Z,10.30
2022-11-09T10:56:20.396Z,10.80
2022-11-09T11:02:43.234Z,10.30
2022-11-09T11:08:37.321Z,10.63
2022-11-09T11:11:38.195Z,10.70
2022-11-09T11:14:23.683Z,10.63
2022-11-09T11:17:24.928Z,9.37
2022-11-09T11:20:29.978Z,10.97
2022-11-09T11:23:15.231Z,10.70
2022-11-09T11:26:15.329Z,10.23
2022-11-09T11:29:01.640Z,12.37
2022-11-09T11:31:46.879Z,11.67
2022-11-09T11:37:35.546Z,10.10
2022-11-09T11:40:23.756Z,9.70
2022-11-09T11:43:12.531Z,10.00
2022-11-09T11:46:18.199Z,9.97
2022-11-09T11:49:22.154Z,9.20
2022-11-09T11:52:11.306Z,10.40
2022-11-09T11:54:56.964Z,9.70
2022-11-09T11:57:45.511Z,10.63
2022-11-09T12:00:30.822Z,9.50
2022-11-09T12:03:35.266Z,9.50
2022-11-09T12:06:30.940Z,10.60
2022-11-09T12:09:16.579Z,8.60
2022-11-09T12:12:06.578Z,10.53
2022-11-09T12:14:56.972Z,9.63
2022-11-09T12:17:42.448Z,10.33
2022-11-09T12:20:51.101Z,8.60
2022-11-09T12:24:00.341Z,10.37
2022-11-09T12:27:10.837Z,9.67
2022-11-09T12:29:57.431Z,10.70
2022-11-09T12:33:05.156Z,11.70
2022-11-09T12:35:53.197Z,11.53
2022-11-09T12:38:46.616Z,12.10
2022-11-09T12:41:33.643Z,10.87
2022-11-09T12:47:24.831Z,11.67
2022-11-09T12:53:24.691Z,11.93
2022-11-09T12:56:18.121Z,12.80
2022-11-09T12:59:22.741Z,11.77
2022-11-09T13:05:27.422Z,12.37
2022-11-09T13:08:17.944Z,13.30
2022-11-09T13:11:18.955Z,12.40
2022-11-09T13:14:22.715Z,13.13
2022-11-09T13:17:26.153Z,10.70
2022-11-09T13:20:53.208Z,13.50
2022-11-09T13:29:56.436Z,12.47
2022-11-09T13:32:43.234Z,12.77
2022-11-09T13:35:41.271Z,14.57
2022-11-09T13:41:30.023Z,12.73
2022-11-09T13:47:24.735Z,15.00
2022-11-09T13:53:50.948Z,12.87
2022-11-09T13:56:37.701Z,14.90
2022-11-09T13:59:35.336Z,15.07
2022-11-09T14:05:27.852Z,13.07
2022-11-09T14:08:17.323Z,13.23
2022-11-09T14:11:23.767Z,13.40
2022-11-09T14:17:20.980Z,12.63
2022-11-09T14:20:11.540Z,12.57
2022-11-09T14:22:56.963Z,12.57
2022-11-09T14:28:44.863Z,13.23
2022-11-09T14:31:31.143Z,12.50
2022-11-09T14:34:16.877Z,12.10
2022-11-09T14:37:05.779Z,12.43
2022-11-09T14:39:52.552Z,13.60
2022-11-09T14:42:40.840Z,13.60
2022-11-09T14:45:30.422Z,13.53
2022-11-09T14:48:19.713Z,12.83
2022-11-09T14:51:05.503Z,9.90
2022-11-09T14:53:50.943Z,13.03
2022-11-09T14:56:36.299Z,14.43
2022-11-09T14:59:28.801Z,13.50
2022-11-09T15:02:20.933Z,11.77
2022-11-09T15:05:06.532Z,13.70
2022-11-09T15:07:51.971Z,11.27
2022-11-09T15:10:37.348Z,14.07
2022-11-09T15:13:36.036Z,14.33
2022-11-09T15:16:22.282Z,13.80
2022-11-09T15:19:19.960Z,14.20
2022-11-09T15:22:05.477Z,14.27
2022-11-09T15:24:50.738Z,13.97
2022-11-09T15:27:36.113Z,14.53
2022-11-09T15:30:35.473Z,14.03
2022-11-09T15:33:25.025Z,14.90
2022-11-09T15:36:22.890Z,13.10
2022-11-09T15:39:14.375Z,12.50
2022-11-09T15:41:59.872Z,13.40
2022-11-09T15:44:45.230Z,12.97
2022-11-09T15:47:34.442Z,14.50
2022-11-09T15:50:20.662Z,13.43
2022-11-09T15:53:05.826Z,13.97
2022-11-09T15:55:51.344Z,14.67
2022-11-09T15:58:36.695Z,14.00
2022-11-09T16:01:22.451Z,13.43
2022-11-09T16:04:07.973Z,15.10
2022-11-09T16:06:53.641Z,14.50
2022-11-09T16:09:39.629Z,13.80
2022-11-09T16:12:25.420Z,15.27
2022-11-09T16:15:10.519Z,14.07
2022-11-09T16:17:55.886Z,15.70
2022-11-09T16:20:41.131Z,16.10
2022-11-09T16:23:26.762Z,16.33
2022-11-09T16:26:15.549Z,16.53
2022-11-09T16:29:01.088Z,18.00
2022-11-09T16:31:51.856Z,16.70
2022-11-09T16:34:37.678Z,19.07
2022-11-09T16:37:23.105Z,18.23
2022-11-09T16:40:10.059Z,16.60
2022-11-09T16:42:56.081Z,16.10
2022-11-09T16:45:47.947Z,15.20
2022-11-09T16:48:33.961Z,17.87
2022-11-09T16:51:19.406Z,16.57
2022-11-09T16:54:05.027Z,17.43
2022-11-09T16:56:50.980Z,16.77
2022-11-09T16:59:36.292Z,16.87
2022-11-09T17:02:21.633Z,16.57
2022-11-09T17:05:07.059Z,17.00
2022-11-09T17:07:52.344Z,17.50
2022-11-09T17:10:44.032Z,16.00
2022-11-09T17:13:29.147Z,18.27
2022-11-09T17:16:14.474Z,17.83
2022-11-09T17:19:00.096Z,17.87
2022-11-09T17:21:45.163Z,19.03
2022-11-09T17:24:30.606Z,18.77
2022-11-09T17:27:17.602Z,19.03
2022-11-09T17:30:03.025Z,16.47
2022-11-09T17:32:48.735Z,17.10
2022-11-09T17:35:36.659Z,17.70
2022-11-09T17:38:23.716Z,17.23
2022-11-09T17:41:09.738Z,13.63
2022-11-09T17:43:54.671Z,17.10
2022-11-09T17:46:39.749Z,18.87
2022-11-09T17:49:24.980Z,18.43
2022-11-09T17:52:10.542Z,18.50
2022-11-09T17:54:55.547Z,17.27
2022-11-09T17:57:40.953Z,21.03
2022-11-09T18:00:26.065Z,20.97
2022-11-09T18:03:11.548Z,22.53
2022-11-09T18:05:56.805Z,16.03
2022-11-09T18:08:42.475Z,20.93
2022-11-09T18:11:29.937Z,23.63
2022-11-09T18:14:16.080Z,19.83
2022-11-09T18:17:01.762Z,23.93
2022-11-09T18:19:47.399Z,24.07
2022-11-09T18:22:32.508Z,20.77
2022-11-09T18:25:17.757Z,26.60
2022-11-09T18:28:03.141Z,25.77
2022-11-09T18:30:48.416Z,15.63
2022-11-09T18:33:33.761Z,24.07
2022-11-09T18:36:19.842Z,23.87
2022-11-09T18:39:04.896Z,24.53
2022-11-09T18:41:50.040Z,21.97
2022-11-09T18:44:38.407Z,25.73
2022-11-09T18:47:23.835Z,22.30
2022-11-09T18:50:10.431Z,23.50
2022-11-09T18:52:55.726Z,23.80
2022-11-09T18:55:41.532Z,23.83
2022-11-09T18:58:26.893Z,23.77
2022-11-09T19:01:14.424Z,17.07
2022-11-09T19:04:01.779Z,23.77
2022-11-09T19:06:47.400Z,23.53
2022-11-09T19:09:35.821Z,23.80
2022-11-09T19:12:21.541Z,22.20
2022-11-09T19:15:07.132Z,21.47
2022-11-09T19:17:52.574Z,22.67
2022-11-09T19:20:38.481Z,20.33
2022-11-09T19:23:25.697Z,19.80
2022-11-09T19:26:13.673Z,21.93
2022-11-09T19:28:59.072Z,23.20
2022-11-09T19:31:44.924Z,21.80
2022-11-09T19:34:30.361Z,21.60
2022-11-09T19:37:15.975Z,22.23
2022-11-09T19:40:02.418Z,21.97
2022-11-09T19:42:47.748Z,23.47
2022-11-09T19:45:33.484Z,22.30
2022-11-09T19:48:19.165Z,22.90
2022-11-09T19:51:04.645Z,21.47
2022-11-09T19:53:52.169Z,22.57
2022-11-09T19:56:37.460Z,22.77
2022-11-09T19:59:25.698Z,22.57
2022-11-09T20:02:10.811Z,21.30
2022-11-09T20:04:56.154Z,22.83
2022-11-09T20:07:41.707Z,24.40
2022-11-09T20:10:28.635Z,22.97
2022-11-09T20:13:14.123Z,23.60
2022-11-09T20:16:05.716Z,21.80
2022-11-09T20:18:51.274Z,22.70
2022-11-09T20:21:37.030Z,22.40
2022-11-09T20:24:22.344Z,23.50
2022-11-09T20:27:07.723Z,22.90
2022-11-09T20:29:53.234Z,23.50
2022-11-09T20:32:38.464Z,23.33
2022-11-09T20:35:23.606Z,24.47
2022-11-09T20:38:08.965Z,22.53
2022-11-09T20:40:55.433Z,23.13
2022-11-09T20:43:41.080Z,24.17
2022-11-09T20:46:28.955Z,24.07
2022-11-09T20:49:17.972Z,24.50
2022-11-09T20:52:03.217Z,23.90
2022-11-09T20:54:48.739Z,23.67
2022-11-09T20:57:34.027Z,22.57
2022-11-09T21:00:24.179Z,23.70
2022-11-09T21:03:09.935Z,22.60
2022-11-09T21:05:59.859Z,21.97
2022-11-09T21:08:45.748Z,22.53
2022-11-09T21:11:37.100Z,22.30
2022-11-09T21:14:22.759Z,23.60
2022-11-09T21:17:08.246Z,22.97
2022-11-09T21:19:53.580Z,22.20
2022-11-09T21:22:57.495Z,22.27
2022-11-09T21:26:03.987Z,19.40
2022-11-09T21:29:08.011Z,22.57
2022-11-09T21:31:53.760Z,20.33
2022-11-09T21:34:39.025Z,22.43
2022-11-09T21:37:24.446Z,22.63
2022-11-09T21:40:10.522Z,20.97
2022-11-09T21:42:55.998Z,20.47
2022-11-09T21:45:41.842Z,23.60
2022-11-09T21:48:27.284Z,21.67
2022-11-09T21:54:17.155Z,22.20
2022-11-09T21:57:04.058Z,20.77
2022-11-09T21:59:49.378Z,20.10
2022-11-09T22:02:36.047Z,21.03
2022-11-09T22:05:23.149Z,20.50
2022-11-09T22:08:09.002Z,20.13
2022-11-09T22:11:02.650Z,20.80
2022-11-09T22:14:06.728Z,20.83
2022-11-09T22:16:51.927Z,21.80
2022-11-09T22:22:59.070Z,22.13
2022-11-09T22:28:47.102Z,21.00
2022-11-09T22:34:35.252Z,21.07
2022-11-09T22:40:23.529Z,21.43
2022-11-09T22:46:16.020Z,21.33
2022-11-09T22:52:04.888Z,20.70
2022-11-09T22:57:56.187Z,20.47
2022-11-09T23:03:45.342Z,19.37
2022-11-09T23:06:32.582Z,20.00
2022-11-09T23:09:17.992Z,20.30
2022-11-09T23:12:03.267Z,20.73
2022-11-09T23:15:03.896Z,19.57
2022-11-09T23:21:11.874Z,20.60
2022-11-09T23:27:01.519Z,21.10
2022-11-09T23:29:46.555Z,20.20
2022-11-09T23:32:32.021Z,20.00
2022-11-09T23:35:17.936Z,19.93
2022-11-09T23:38:03.965Z,19.67
2022-11-09T23:40:49.601Z,18.37
2022-11-09T23:43:35.351Z,17.80
2022-11-09T23:46:20.550Z,17.57
2022-11-09T23:49:05.927Z,16.87
2022-11-09T23:51:51.174Z,16.13
2022-11-09T23:54:36.392Z,15.53
2022-11-09T23:57:21.803Z,15.90
